Time,TemperatureF,DewpointF,PressureIn,WindDirection,WindDirectionDegrees,WindSpeedMPH,WindSpeedGustMPH,Humidity,HourlyPrecipIn,Conditions,Clouds,dailyrainin,SoftwareType,DateUTC
2013-02-17 00:00:00,40.6,24.4,30.13,NW,315,0.4,2.3,52,0.00,CLR,,0.00,WeatherDisplay:10.37,2013-02-17 05:00:00,
2013-02-17 00:05:00,40.6,25.3,30.12,NE,45,0.1,2.3,54,0.00,CLR,,0.00,WeatherDisplay:10.37,2013-02-17 05:05:00,
2013-02-17 00:10:00,40.3,24.5,30.13,North,0,0.0,2.3,53,0.00,CLR,,0.00,WeatherDisplay:10.37,2013-02-17 05:10:00,
2013-02-17 00:15:00,39.9,24.6,30.13,North,0,0.3,4.6,54,0.00,CLR,,0.00,WeatherDisplay:10.37,2013-02-17 05:15:00,
2013-02-17 00:20:00,39.7,23.5,30.13,North,0,0.0,0.0,52,0.00,CLR,,0.00,WeatherDisplay:10.37,2013-02-17 05:20:00,
2013-02-17 00:25:00,39.7,24.4,30.13,North,0,0.1,2.3,54,0.00,CLR,,0.00,WeatherDisplay:10.37,2013-02-17 05:25:00,
2013-02-17 00:30:00,39.4,24.1,30.13,North,0,0.0,0.0,54,0.00,CLR,,0.00,WeatherDisplay:10.37,2013-02-17 05:30:00,
2013-02-17 00:35:00,39.4,24.1,30.13,North,0,0.0,0.0,54,0.00,CLR,,0.00,WeatherDisplay:10.37,2013-02-17 05:35:00,
2013-02-17 00:40:00,39.0,24.2,30.13,North,0,0.0,0.0,55,0.00,CLR,,0.00,WeatherDisplay:10.37,2013-02-17 05:40:00,
2013-02-17 00:45:00,38.8,24.5,30.14,NW,315,0.0,0.0,56,0.00,CLR,,0.00,WeatherDisplay:10.37,2013-02-17 05:45:00,
2013-02-17 00:50:00,38.7,23.4,30.14,NW,315,0.0,0.0,54,0.00,CLR,,0.00,WeatherDisplay:10.37,2013-02-17 05:50:00,
2013-02-17 00:55:00,38.5,24.1,30.14,NW,315,0.0,0.0,56,0.00,CLR,,0.00,WeatherDisplay:10.37,2013-02-17 05:55:00,
2013-02-17 01:00:00,38.3,24.0,30.14,NW,315,0.0,0.0,56,0.00,CLR,,0.00,WeatherDisplay:10.37,2013-02-17 06:00:00,
2013-02-17 01:05:00,38.1,23.8,30.14,NW,315,0.0,2.3,56,0.00,CLR,,0.00,WeatherDisplay:10.37,2013-02-17 06:05:00,
2013-02-17 01:10:00,37.9,23.6,30.14,NW,315,0.0,0.0,56,0.00,CLR,,0.00,WeatherDisplay:10.37,2013-02-17 06:10:00,
2013-02-17 01:15:00,37.9,23.6,30.15,NW,315,0.0,0.0,56,0.00,CLR,,0.00,WeatherDisplay:10.37,2013-02-17 06:15:00,
2013-02-17 01:20:00,37.6,24.1,30.15,NW,315,0.0,0.0,58,0.00,CLR,,0.00,WeatherDisplay:10.37,2013-02-17 06:20:00,
2013-02-17 01:25:00,37.2,23.8,30.15,NW,315,0.0,0.0,58,0.00,CLR,,0.00,WeatherDisplay:10.37,2013-02-17 06:25:00,
2013-02-17 01:30:00,37.0,24.0,30.15,NW,315,0.0,0.0,59,0.00,CLR,,0.00,WeatherDisplay:10.37,2013-02-17 06:30:00,
2013-02-17 01:35:00,36.7,23.7,30.15,NW,315,0.0,0.0,59,0.00,CLR,,0.00,WeatherDisplay:10.37,2013-02-17 06:35:00,
2013-02-17 01:40:00,36.5,24.3,30.15,NW,315,0.0,0.0,61,0.00,CLR,,0.00,WeatherDisplay:10.37,2013-02-17 06:40:00,
2013-02-17 01:45:00,36.1,24.4,30.15,NW,315,0.0,0.0,62,0.00,CLR,,0.00,WeatherDisplay:10.37,2013-02-17 06:45:00,
2013-02-17 01:50:00,36.0,24.2,30.15,NW,315,0.0,0.0,62,0.00,CLR,,0.00,WeatherDisplay:10.37,2013-02-17 06:50:00,
2013-02-17 01:55:00,35.8,24.0,30.15,NW,315,0.0,0.0,62,0.00,CLR,,0.00,WeatherDisplay:10.37,2013-02-17 06:55:00,
2013-02-17 02:00:00,35.8,24.4,30.15,NW,315,0.0,0.0,63,0.00,CLR,,0.00,WeatherDisplay:10.37,2013-02-17 07:00:00,
2013-02-17 02:05:00,35.2,24.3,30.15,NW,315,0.0,0.0,64,0.00,CLR,,0.00,WeatherDisplay:10.37,2013-02-17 07:05:00,
2013-02-17 02:10:00,35.2,24.3,30.15,NW,315,0.0,0.0,64,0.00,CLR,,0.00,WeatherDisplay:10.37,2013-02-17 07:10:00,
2013-02-17 02:15:00,35.2,25.0,30.15,NW,315,0.0,0.0,66,0.00,CLR,,0.00,WeatherDisplay:10.37,2013-02-17 07:15:00,
2013-02-17 02:20:00,35.1,25.2,30.15,NW,315,0.0,0.0,67,0.00,CLR,,0.00,WeatherDisplay:10.37,2013-02-17 07:20:00,
2013-02-17 02:25:00,34.7,24.1,30.15,NW,315,0.0,0.0,65,0.00,CLR,,0.00,WeatherDisplay:10.37,2013-02-17 07:25:00,
2013-02-17 02:30:00,34.5,24.7,30.15,NW,315,0.0,0.0,67,0.00,CLR,,0.00,WeatherDisplay:10.37,2013-02-17 07:30:00,
2013-02-17 02:35:00,34.3,24.5,30.15,NW,315,0.0,0.0,67,0.00,CLR,,0.00,WeatherDisplay:10.37,2013-02-17 07:35:00,
2013-02-17 02:40:00,34.0,24.5,30.15,NW,315,0.0,0.0,68,0.00,CLR,,0.00,WeatherDisplay:10.37,2013-02-17 07:40:00,
2013-02-17 02:45:00,33.4,24.7,30.15,NW,315,0.0,0.0,70,0.00,CLR,,0.00,WeatherDisplay:10.37,2013-02-17 07:45:00,
2013-02-17 02:50:00,33.1,24.7,30.15,NW,315,0.0,0.0,71,0.00,CLR,,0.00,WeatherDisplay:10.37,2013-02-17 07:50:00,
2013-02-17 02:55:00,32.7,24.7,30.15,NW,315,0.0,0.0,72,0.00,CLR,,0.00,WeatherDisplay:10.37,2013-02-17 07:55:00,
2013-02-17 03:00:00,32.5,24.5,30.15,NW,315,0.0,0.0,72,0.00,CLR,,0.00,WeatherDisplay:10.37,2013-02-17 08:00:00,
2013-02-17 03:05:00,32.4,25.3,30.16,NW,315,0.0,0.0,75,0.00,CLR,,0.00,WeatherDisplay:10.37,2013-02-17 08:05:00,
2013-02-17 03:10:00,32.2,25.1,30.16,NW,315,0.0,0.0,75,0.00,CLR,,0.00,WeatherDisplay:10.37,2013-02-17 08:10:00,
2013-02-17 03:15:00,31.8,24.8,30.16,NW,315,0.0,0.0,75,0.00,CLR,,0.00,WeatherDisplay:10.37,2013-02-17 08:15:00,
2013-02-17 03:20:00,31.6,24.6,30.16,NW,315,0.0,0.0,75,0.00,CLR,,0.00,WeatherDisplay:10.37,2013-02-17 08:20:00,
2013-02-17 03:25:00,31.6,24.6,30.15,NW,315,0.0,0.0,75,0.00,CLR,,0.00,WeatherDisplay:10.37,2013-02-17 08:25:00,
2013-02-17 03:30:00,31.5,24.4,30.16,NW,315,0.0,0.0,75,0.00,CLR,,0.00,WeatherDisplay:10.37,2013-02-17 08:30:00,
2013-02-17 03:35:00,31.3,24.3,30.16,NW,315,0.0,0.0,75,0.00,CLR,,0.00,WeatherDisplay:10.37,2013-02-17 08:35:00,
2013-02-17 16:52:00,31.3,24.3,30.16,NW,315,0.0,0.0,75,0.00,CLR,,0.00,WeatherDisplay:10.37,2013-02-17 21:52:00,
2013-02-17 16:57:00,31.3,24.3,30.16,NW,315,0.0,0.0,75,0.00,CLR,,0.00,WeatherDisplay:10.37,2013-02-17 21:57:00,
2013-02-17 17:02:00,51.4,14.8,30.24,North,0,0.0,0.0,23,0.00,CLR,,0.00,WeatherDisplay:10.37,2013-02-17 22:02:00,
2013-02-17 17:07:00,51.4,14.8,30.24,North,0,0.0,0.0,23,0.00,CLR,,0.00,WeatherDisplay:10.37,2013-02-17 22:07:00,
2013-02-17 17:12:00,51.1,16.4,30.23,West,270,0.0,0.0,25,0.00,CLR,,0.00,WeatherDisplay:10.37,2013-02-17 22:12:00,
2013-02-17 17:17:00,51.1,16.4,30.23,West,270,0.0,0.0,25,0.00,CLR,,0.00,WeatherDisplay:10.37,2013-02-17 22:17:00,
2013-02-17 17:22:00,50.7,15.2,30.24,West,270,0.0,0.0,24,0.00,CLR,,0.00,WeatherDisplay:10.37,2013-02-17 22:22:00,
2013-02-17 17:27:00,50.5,15.0,30.24,West,270,0.1,2.7,24,0.00,CLR,,0.00,WeatherDisplay:10.37,2013-02-17 22:27:00,
2013-02-17 17:32:00,50.2,14.7,30.24,West,270,0.0,0.0,24,0.00,CLR,,0.00,WeatherDisplay:10.37,2013-02-17 22:32:00,
2013-02-17 17:37:00,49.8,17.1,30.24,NW,315,0.0,0.0,27,0.00,CLR,,0.00,WeatherDisplay:10.37,2013-02-17 22:37:00,
2013-02-17 17:42:00,49.6,18.6,30.24,North,0,0.0,0.0,29,0.00,CLR,,0.00,WeatherDisplay:10.37,2013-02-17 22:42:00,
2013-02-17 17:47:00,49.3,16.7,30.24,NW,315,0.0,2.3,27,0.00,CLR,,0.00,WeatherDisplay:10.37,2013-02-17 22:47:00,
2013-02-17 17:52:00,48.9,16.4,30.24,NW,315,0.0,0.0,27,0.00,CLR,,0.00,WeatherDisplay:10.37,2013-02-17 22:52:00,
2013-02-17 17:57:00,48.7,15.3,30.24,NW,315,0.0,0.0,26,0.00,CLR,,0.00,WeatherDisplay:10.37,2013-02-17 22:57:00,
2013-02-17 18:02:00,48.4,17.5,30.24,NW,315,0.0,0.0,29,0.00,CLR,,0.00,WeatherDisplay:10.37,2013-02-17 23:02:00,
2013-02-17 18:07:00,47.8,18.6,30.24,NW,315,0.0,0.0,31,0.00,CLR,,0.00,WeatherDisplay:10.37,2013-02-17 23:07:00,
2013-02-17 18:12:00,47.1,18.7,30.24,NW,315,0.0,0.0,32,0.00,CLR,,0.00,WeatherDisplay:10.37,2013-02-17 23:12:00,
2013-02-17 18:17:00,46.0,18.5,30.25,NW,315,0.0,0.0,33,0.00,CLR,,0.00,WeatherDisplay:10.37,2013-02-17 23:17:00,
2013-02-17 18:22:00,45.5,18.7,30.24,NW,315,0.0,0.0,34,0.00,CLR,,0.00,WeatherDisplay:10.37,2013-02-17 23:22:00,
2013-02-17 18:27:00,45.1,19.7,30.25,NW,315,0.0,0.0,36,0.00,CLR,,0.00,WeatherDisplay:10.37,2013-02-17 23:27:00,
2013-02-17 18:32:00,44.4,21.0,30.25,NW,315,0.0,0.0,39,0.00,CLR,,0.00,WeatherDisplay:10.37,2013-02-17 23:32:00,
2013-02-17 18:37:00,43.9,21.1,30.25,NW,315,0.0,0.0,40,0.00,CLR,,0.00,WeatherDisplay:10.37,2013-02-17 23:37:00,
2013-02-17 18:42:00,43.3,21.8,30.25,NW,315,0.0,0.0,42,0.00,CLR,,0.00,WeatherDisplay:10.37,2013-02-17 23:42:00,
2013-02-17 18:47:00,42.4,20.9,30.25,NW,315,0.0,0.0,42,0.00,CLR,,0.00,WeatherDisplay:10.37,2013-02-17 23:47:00,
2013-02-17 18:52:00,42.3,21.3,30.25,NW,315,0.0,0.0,43,0.00,CLR,,0.00,WeatherDisplay:10.37,2013-02-17 23:52:00,
2013-02-17 18:57:00,41.9,23.1,30.25,NW,315,0.0,0.0,47,0.00,CLR,,0.00,WeatherDisplay:10.37,2013-02-17 23:57:00,
2013-02-17 19:02:00,41.4,23.1,30.25,NW,315,0.0,0.0,48,0.00,CLR,,0.00,WeatherDisplay:10.37,2013-02-18 00:02:00,
2013-02-17 19:07:00,40.8,23.6,30.26,NW,315,0.0,0.0,50,0.00,CLR,,0.00,WeatherDisplay:10.37,2013-02-18 00:07:00,
2013-02-17 19:12:00,40.6,23.9,30.26,NW,315,0.0,0.0,51,0.00,CLR,,0.00,WeatherDisplay:10.37,2013-02-18 00:12:00,
2013-02-17 19:17:00,40.3,24.5,30.26,NW,315,0.0,0.0,53,0.00,CLR,,0.00,WeatherDisplay:10.37,2013-02-18 00:17:00,
2013-02-17 19:22:00,39.7,24.4,30.26,NW,315,0.0,0.0,54,0.00,CLR,,0.00,WeatherDisplay:10.37,2013-02-18 00:22:00,
2013-02-17 19:27:00,39.4,25.0,30.26,NW,315,0.0,0.0,56,0.00,CLR,,0.00,WeatherDisplay:10.37,2013-02-18 00:27:00,
2013-02-17 19:32:00,39.0,25.1,30.26,NW,315,0.0,0.0,57,0.00,CLR,,0.00,WeatherDisplay:10.37,2013-02-18 00:32:00,
2013-02-17 19:37:00,38.8,25.3,30.26,NW,315,0.0,0.0,58,0.00,CLR,,0.00,WeatherDisplay:10.37,2013-02-18 00:37:00,
2013-02-17 19:42:00,38.5,25.4,30.26,NW,315,0.0,0.0,59,0.00,CLR,,0.00,WeatherDisplay:10.37,2013-02-18 00:42:00,
2013-02-17 19:47:00,38.1,25.0,30.26,NW,315,0.0,0.0,59,0.00,CLR,,0.00,WeatherDisplay:10.37,2013-02-18 00:47:00,
2013-02-17 19:52:00,37.9,25.3,30.27,NW,315,0.0,0.0,60,0.00,CLR,,0.00,WeatherDisplay:10.37,2013-02-18 00:52:00,
2013-02-17 19:57:00,37.8,25.9,30.27,NW,315,0.0,0.0,62,0.00,CLR,,0.00,WeatherDisplay:10.37,2013-02-18 00:57:00,
2013-02-17 20:02:00,37.6,25.7,30.26,NW,315,0.0,0.0,62,0.00,CLR,,0.00,WeatherDisplay:10.37,2013-02-18 01:02:00,
2013-02-17 20:07:00,37.2,25.0,30.27,NW,315,0.0,0.0,61,0.00,CLR,,0.00,WeatherDisplay:10.37,2013-02-18 01:07:00,
2013-02-17 20:12:00,37.0,25.2,30.27,NW,315,0.0,0.0,62,0.00,CLR,,0.00,WeatherDisplay:10.37,2013-02-18 01:12:00,
2013-02-17 20:17:00,37.0,26.0,30.28,NW,315,0.0,0.0,64,0.00,CLR,,0.00,WeatherDisplay:10.37,2013-02-18 01:17:00,
2013-02-17 20:22:00,36.7,26.0,30.28,NW,315,0.0,0.0,65,0.00,CLR,,0.00,WeatherDisplay:10.37,2013-02-18 01:22:00,
2013-02-17 20:27:00,36.5,25.8,30.28,NW,315,0.0,0.0,65,0.00,CLR,,0.00,WeatherDisplay:10.37,2013-02-18 01:27:00,
2013-02-17 20:32:00,36.3,26.4,30.28,NW,315,0.0,0.0,67,0.00,CLR,,0.00,WeatherDisplay:10.37,2013-02-18 01:32:00,
2013-02-17 20:37:00,36.1,26.2,30.28,NW,315,0.0,0.0,67,0.00,CLR,,0.00,WeatherDisplay:10.37,2013-02-18 01:37:00,
2013-02-17 20:42:00,36.0,26.1,30.28,NW,315,0.0,0.0,67,0.00,CLR,,0.00,WeatherDisplay:10.37,2013-02-18 01:42:00,
2013-02-17 20:47:00,35.8,26.2,30.28,NW,315,0.0,0.0,68,0.00,CLR,,0.00,WeatherDisplay:10.37,2013-02-18 01:47:00,
2013-02-17 20:52:00,35.6,26.8,30.29,NW,315,0.0,0.0,70,0.00,CLR,,0.00,WeatherDisplay:10.37,2013-02-18 01:52:00,
2013-02-17 20:57:00,35.4,26.6,30.29,NW,315,0.0,0.0,70,0.00,CLR,,0.00,WeatherDisplay:10.37,2013-02-18 01:57:00,
2013-02-17 21:02:00,35.2,27.4,30.30,NW,315,0.0,0.0,73,0.00,CLR,,0.00,WeatherDisplay:10.37,2013-02-18 02:02:00,
2013-02-17 21:07:00,35.1,27.3,30.30,NW,315,0.0,0.0,73,0.00,CLR,,0.00,WeatherDisplay:10.37,2013-02-18 02:07:00,
2013-02-17 21:12:00,34.9,27.1,30.30,NW,315,0.0,0.0,73,0.00,CLR,,0.00,WeatherDisplay:10.37,2013-02-18 02:12:00,
2013-02-17 21:17:00,34.7,26.9,30.30,NW,315,0.0,0.0,73,0.00,CLR,,0.00,WeatherDisplay:10.37,2013-02-18 02:17:00,
2013-02-17 21:22:00,34.7,26.6,30.30,NW,315,0.0,0.0,72,0.00,CLR,,0.00,WeatherDisplay:10.37,2013-02-18 02:22:00,
2013-02-17 21:27:00,34.5,26.8,30.30,NW,315,0.0,0.0,73,0.00,CLR,,0.00,WeatherDisplay:10.37,2013-02-18 02:27:00,
2013-02-17 21:32:00,34.5,26.8,30.31,NW,315,0.0,0.0,73,0.00,CLR,,0.00,WeatherDisplay:10.37,2013-02-18 02:32:00,
2013-02-17 21:37:00,34.3,26.6,30.30,NW,315,0.0,0.0,73,0.00,CLR,,0.00,WeatherDisplay:10.37,2013-02-18 02:37:00,
2013-02-17 21:42:00,34.3,26.9,30.31,NW,315,0.0,0.0,74,0.00,CLR,,0.00,WeatherDisplay:10.37,2013-02-18 02:42:00,
2013-02-17 21:47:00,34.3,26.6,30.31,NW,315,0.0,0.0,73,0.00,CLR,,0.00,WeatherDisplay:10.37,2013-02-18 02:47:00,
2013-02-17 21:52:00,34.2,26.1,30.31,NW,315,0.0,0.0,72,0.00,CLR,,0.00,WeatherDisplay:10.37,2013-02-18 02:52:00,
2013-02-17 21:57:00,34.0,25.9,30.31,NW,315,0.0,0.0,72,0.00,CLR,,0.00,WeatherDisplay:10.37,2013-02-18 02:57:00,
2013-02-17 22:02:00,34.0,26.2,30.31,NW,315,0.0,0.0,73,0.00,CLR,,0.00,WeatherDisplay:10.37,2013-02-18 03:02:00,
2013-02-17 22:06:00,34.0,26.6,30.31,NW,315,0.0,0.0,74,0.00,CLR,,0.00,WeatherDisplay:10.37,2013-02-18 03:06:00,
2013-02-17 22:11:00,34.0,26.2,30.32,NW,315,0.0,0.0,73,0.00,CLR,,0.00,WeatherDisplay:10.37,2013-02-18 03:11:00,
2013-02-17 22:16:00,33.6,25.9,30.31,NW,315,0.0,0.0,73,0.00,CLR,,0.00,WeatherDisplay:10.37,2013-02-18 03:16:00,
2013-02-17 22:21:00,34.0,26.9,30.32,NW,315,0.0,0.0,75,0.00,CLR,,0.00,WeatherDisplay:10.37,2013-02-18 03:21:00,
2013-02-17 22:26:00,34.0,26.6,30.32,NW,315,0.0,0.0,74,0.00,CLR,,0.00,WeatherDisplay:10.37,2013-02-18 03:26:00,
2013-02-17 22:31:00,33.8,26.1,30.32,NW,315,0.0,0.0,73,0.00,CLR,,0.00,WeatherDisplay:10.37,2013-02-18 03:31:00,
2013-02-17 22:36:00,34.0,26.6,30.32,NW,315,0.0,0.0,74,0.00,CLR,,0.00,WeatherDisplay:10.37,2013-02-18 03:36:00,
2013-02-17 22:41:00,34.0,26.9,30.33,NW,315,0.0,0.0,75,0.00,CLR,,0.00,WeatherDisplay:10.37,2013-02-18 03:41:00,
2013-02-17 22:46:00,33.6,26.2,30.33,NW,315,0.0,0.0,74,0.00,CLR,,0.00,WeatherDisplay:10.37,2013-02-18 03:46:00,
2013-02-17 22:51:00,33.6,26.5,30.33,NW,315,0.0,0.0,75,0.00,CLR,,0.00,WeatherDisplay:10.37,2013-02-18 03:51:00,
2013-02-17 22:56:00,33.6,26.5,30.33,NW,315,0.0,0.0,75,0.00,CLR,,0.00,WeatherDisplay:10.37,2013-02-18 03:56:00,
2013-02-17 23:01:00,33.4,26.0,30.33,NW,315,0.0,0.0,74,0.00,CLR,,0.00,WeatherDisplay:10.37,2013-02-18 04:01:00,
2013-02-17 23:06:00,33.4,25.7,30.33,NW,315,0.0,0.0,73,0.00,CLR,,0.00,WeatherDisplay:10.37,2013-02-18 04:06:00,
2013-02-17 23:11:00,33.1,25.0,30.33,NW,315,0.0,0.0,72,0.00,CLR,,0.00,WeatherDisplay:10.37,2013-02-18 04:11:00,
2013-02-17 23:16:00,33.1,25.0,30.33,NW,315,0.0,0.0,72,0.00,CLR,,0.00,WeatherDisplay:10.37,2013-02-18 04:16:00,
2013-02-17 23:21:00,32.9,25.2,30.33,NW,315,0.0,0.0,73,0.00,CLR,,0.00,WeatherDisplay:10.37,2013-02-18 04:21:00,
2013-02-17 23:26:00,32.9,25.2,30.33,NW,315,0.0,0.0,73,0.00,CLR,,0.00,WeatherDisplay:10.37,2013-02-18 04:26:00,
2013-02-17 23:31:00,32.7,25.3,30.33,NW,315,0.0,0.0,74,0.00,CLR,,0.00,WeatherDisplay:10.37,2013-02-18 04:31:00,
2013-02-17 23:36:00,32.5,25.2,30.33,NW,315,0.0,0.0,74,0.00,CLR,,0.00,WeatherDisplay:10.37,2013-02-18 04:36:00,
2013-02-17 23:41:00,32.4,24.7,30.33,NW,315,0.0,0.0,73,0.00,CLR,,0.00,WeatherDisplay:10.37,2013-02-18 04:41:00,
2013-02-17 23:46:00,32.2,24.5,30.33,NW,315,0.0,0.0,73,0.00,CLR,,0.00,WeatherDisplay:10.37,2013-02-18 04:46:00,
2013-02-17 23:51:00,32.0,24.6,30.33,NW,315,0.0,0.0,74,0.00,CLR,,0.00,WeatherDisplay:10.37,2013-02-18 04:51:00,
2013-02-17 23:56:00,31.8,24.1,30.33,NW,315,0.0,0.0,73,0.00,CLR,,0.00,WeatherDisplay:10.37,2013-02-18 04:56:00,